sensor_id;sensor_type;location;lat;lon;timestamp;temperature;humidity
12746;DHT22;6437;53.686;10.030;2023-05-01T00:01:39;9.40;99.90
12746;DHT22;6437;53.686;10.030;2023-05-01T00:03:41;9.30;99.90
12746;DHT22;6437;53.686;10.030;2023-05-01T00:05:42;9.30;99.90
12746;DHT22;6437;53.686;10.030;2023-05-01T00:07:44;9.40;99.90
12746;DHT22;6437;53.686;10.030;2023-05-01T00:09:46;9.40;99.90
12746;DHT22;6437;53.686;10.030;2023-05-01T00:11:48;9.40;99.90
12746;DHT22;6437;53.686;10.030;2023-05-01T00:13:51;9.50;99.90
12746;DHT22;6437;53.686;10.030;2023-05-01T00:15:53;9.40;99.90
12746;DHT22;6437;53.686;10.030;2023-05-01T00:17:55;9.40;99.90
12746;DHT22;6437;53.686;10.030;2023-05-01T00:19:57;9.40;99.90
12746;DHT22;6437;53.686;10.030;2023-05-01T00:21:58;9.30;99.90
12746;DHT22;6437;53.686;10.030;2023-05-01T00:24:00;9.30;99.90
12746;DHT22;6437;53.686;10.030;2023-05-01T00:26:02;9.30;99.90
12746;DHT22;6437;53.686;10.030;2023-05-01T00:28:04;9.30;99.90
12746;DHT22;6437;53.686;10.030;2023-05-01T00:30:08;9.20;99.90
12746;DHT22;6437;53.686;10.030;2023-05-01T00:32:10;9.20;99.90
12746;DHT22;6437;53.686;10.030;2023-05-01T00:34:11;9.10;99.90
12746;DHT22;6437;53.686;10.030;2023-05-01T00:36:13;9.10;99.90
12746;DHT22;6437;53.686;10.030;2023-05-01T00:38:15;9.10;99.90
12746;DHT22;6437;53.686;10.030;2023-05-01T00:40:16;9.10;99.90
12746;DHT22;6437;53.686;10.030;2023-05-01T00:42:18;9.10;99.90
12746;DHT22;6437;53.686;10.030;2023-05-01T00:44:20;9.00;99.90
12746;DHT22;6437;53.686;10.030;2023-05-01T00:46:23;9.10;99.90
12746;DHT22;6437;53.686;10.030;2023-05-01T00:48:25;9.10;99.90
12746;DHT22;6437;53.686;10.030;2023-05-01T00:50:27;9.10;99.90
12746;DHT22;6437;53.686;10.030;2023-05-01T00:52:29;9.10;99.90
12746;DHT22;6437;53.686;10.030;2023-05-01T00:54:31;9.00;99.90
12746;DHT22;6437;53.686;10.030;2023-05-01T00:56:33;9.00;99.90
12746;DHT22;6437;53.686;10.030;2023-05-01T00:58:37;9.00;99.90
12746;DHT22;6437;53.686;10.030;2023-05-01T01:00:39;9.00;99.90
12746;DHT22;6437;53.686;10.030;2023-05-01T01:02:42;9.00;99.90
12746;DHT22;6437;53.686;10.030;2023-05-01T01:04:45;8.90;99.90
12746;DHT22;6437;53.686;10.030;2023-05-01T01:06:52;8.90;99.90
12746;DHT22;6437;53.686;10.030;2023-05-01T01:09:03;8.90;99.90
12746;DHT22;6437;53.686;10.030;2023-05-01T01:11:16;8.90;99.90
12746;DHT22;6437;53.686;10.030;2023-05-01T01:13:26;8.90;99.90
12746;DHT22;6437;53.686;10.030;2023-05-01T01:15:38;9.00;99.90
12746;DHT22;6437;53.686;10.030;2023-05-01T01:17:48;8.90;99.90
12746;DHT22;6437;53.686;10.030;2023-05-01T01:20:17;8.90;99.90
12746;DHT22;6437;53.686;10.030;2023-05-01T01:22:22;8.90;99.90
12746;DHT22;6437;53.686;10.030;2023-05-01T01:24:44;8.90;99.90
12746;DHT22;6437;53.686;10.030;2023-05-01T01:27:07;8.90;99.90
12746;DHT22;6437;53.686;10.030;2023-05-01T01:32:02;8.80;99.90
12746;DHT22;6437;53.686;10.030;2023-05-01T01:34:12;8.80;99.90
12746;DHT22;6437;53.686;10.030;2023-05-01T01:36:16;8.80;99.90
12746;DHT22;6437;53.686;10.030;2023-05-01T01:38:22;8.80;99.90
12746;DHT22;6437;53.686;10.030;2023-05-01T01:40:30;8.80;99.90
12746;DHT22;6437;53.686;10.030;2023-05-01T01:42:40;8.70;99.90
12746;DHT22;6437;53.686;10.030;2023-05-01T01:44:51;8.80;99.90
12746;DHT22;6437;53.686;10.030;2023-05-01T01:46:53;8.80;99.90
12746;DHT22;6437;53.686;10.030;2023-05-01T01:48:55;8.80;99.90
12746;DHT22;6437;53.686;10.030;2023-05-01T01:51:00;8.70;99.90
12746;DHT22;6437;53.686;10.030;2023-05-01T01:53:08;8.70;99.90
12746;DHT22;6437;53.686;10.030;2023-05-01T01:55:12;8.70;99.90
12746;DHT22;6437;53.686;10.030;2023-05-01T01:57:16;8.70;99.90
12746;DHT22;6437;53.686;10.030;2023-05-01T01:59:20;8.70;99.90
12746;DHT22;6437;53.686;10.030;2023-05-01T02:01:24;8.70;99.90
12746;DHT22;6437;53.686;10.030;2023-05-01T02:03:26;8.70;99.90
12746;DHT22;6437;53.686;10.030;2023-05-01T02:05:30;8.70;99.90
12746;DHT22;6437;53.686;10.030;2023-05-01T02:07:39;8.70;99.90
12746;DHT22;6437;53.686;10.030;2023-05-01T02:09:44;8.60;99.90
12746;DHT22;6437;53.686;10.030;2023-05-01T02:11:47;8.70;99.90
12746;DHT22;6437;53.686;10.030;2023-05-01T02:13:50;8.70;99.90
12746;DHT22;6437;53.686;10.030;2023-05-01T02:15:54;8.60;99.90
12746;DHT22;6437;53.686;10.030;2023-05-01T02:17:57;8.60;99.90
12746;DHT22;6437;53.686;10.030;2023-05-01T02:20:02;8.60;99.90
12746;DHT22;6437;53.686;10.030;2023-05-01T02:22:06;8.60;99.90
12746;DHT22;6437;53.686;10.030;2023-05-01T02:24:11;8.60;99.90
12746;DHT22;6437;53.686;10.030;2023-05-01T02:26:15;8.60;99.90
12746;DHT22;6437;53.686;10.030;2023-05-01T02:28:21;8.60;99.90
12746;DHT22;6437;53.686;10.030;2023-05-01T02:30:23;8.50;99.90
12746;DHT22;6437;53.686;10.030;2023-05-01T02:32:25;8.50;99.90
12746;DHT22;6437;53.686;10.030;2023-05-01T02:34:27;8.50;99.90
12746;DHT22;6437;53.686;10.030;2023-05-01T02:36:29;8.50;99.90
12746;DHT22;6437;53.686;10.030;2023-05-01T02:38:33;8.50;99.90
12746;DHT22;6437;53.686;10.030;2023-05-01T02:40:40;8.50;99.90
12746;DHT22;6437;53.686;10.030;2023-05-01T02:42:43;8.50;99.90
12746;DHT22;6437;53.686;10.030;2023-05-01T02:44:49;8.40;99.90
12746;DHT22;6437;53.686;10.030;2023-05-01T02:46:52;8.40;99.90
12746;DHT22;6437;53.686;10.030;2023-05-01T02:48:56;8.10;99.90
12746;DHT22;6437;53.686;10.030;2023-05-01T02:51:00;8.40;99.90
12746;DHT22;6437;53.686;10.030;2023-05-01T02:53:03;8.30;99.90
12746;DHT22;6437;53.686;10.030;2023-05-01T02:55:05;8.30;99.90
12746;DHT22;6437;53.686;10.030;2023-05-01T02:57:09;8.30;99.90
12746;DHT22;6437;53.686;10.030;2023-05-01T02:59:11;8.30;99.90
12746;DHT22;6437;53.686;10.030;2023-05-01T03:01:13;8.30;99.90
12746;DHT22;6437;53.686;10.030;2023-05-01T03:03:15;8.30;99.90
12746;DHT22;6437;53.686;10.030;2023-05-01T03:05:17;8.30;99.90
12746;DHT22;6437;53.686;10.030;2023-05-01T03:07:19;8.30;99.90
12746;DHT22;6437;53.686;10.030;2023-05-01T03:09:21;8.30;99.90
12746;DHT22;6437;53.686;10.030;2023-05-01T03:11:22;8.30;99.90
12746;DHT22;6437;53.686;10.030;2023-05-01T03:13:26;8.20;99.90
12746;DHT22;6437;53.686;10.030;2023-05-01T03:15:27;8.20;99.90
12746;DHT22;6437;53.686;10.030;2023-05-01T03:17:29;8.20;99.90
12746;DHT22;6437;53.686;10.030;2023-05-01T03:19:31;8.20;99.90
12746;DHT22;6437;53.686;10.030;2023-05-01T03:21:33;8.20;99.90
12746;DHT22;6437;53.686;10.030;2023-05-01T03:23:37;8.20;99.90
12746;DHT22;6437;53.686;10.030;2023-05-01T03:25:41;8.30;99.90
12746;DHT22;6437;53.686;10.030;2023-05-01T03:27:43;8.30;99.90
12746;DHT22;6437;53.686;10.030;2023-05-01T03:29:46;8.20;99.90
12746;DHT22;6437;53.686;10.030;2023-05-01T03:31:49;8.20;99.90
12746;DHT22;6437;53.686;10.030;2023-05-01T03:33:51;8.20;99.90
12746;DHT22;6437;53.686;10.030;2023-05-01T03:35:58;8.20;99.90
12746;DHT22;6437;53.686;10.030;2023-05-01T03:38:01;8.20;99.90
12746;DHT22;6437;53.686;10.030;2023-05-01T03:40:03;8.20;99.90
12746;DHT22;6437;53.686;10.030;2023-05-01T03:42:05;8.20;99.90
12746;DHT22;6437;53.686;10.030;2023-05-01T03:44:07;8.20;99.90
12746;DHT22;6437;53.686;10.030;2023-05-01T03:46:10;8.20;99.90
12746;DHT22;6437;53.686;10.030;2023-05-01T03:48:12;8.20;99.90
12746;DHT22;6437;53.686;10.030;2023-05-01T03:50:14;8.20;99.90
12746;DHT22;6437;53.686;10.030;2023-05-01T03:52:16;8.20;99.90
12746;DHT22;6437;53.686;10.030;2023-05-01T03:54:17;8.20;99.90
12746;DHT22;6437;53.686;10.030;2023-05-01T03:56:19;8.20;99.90
12746;DHT22;6437;53.686;10.030;2023-05-01T03:58:21;8.20;99.90
12746;DHT22;6437;53.686;10.030;2023-05-01T04:00:23;8.20;99.90
12746;DHT22;6437;53.686;10.030;2023-05-01T04:02:26;8.20;99.90
12746;DHT22;6437;53.686;10.030;2023-05-01T04:04:27;8.20;99.90
12746;DHT22;6437;53.686;10.030;2023-05-01T04:06:29;8.20;99.90
12746;DHT22;6437;53.686;10.030;2023-05-01T04:08:31;8.20;99.90
12746;DHT22;6437;53.686;10.030;2023-05-01T04:10:36;8.20;99.90
12746;DHT22;6437;53.686;10.030;2023-05-01T04:12:39;8.30;99.90
12746;DHT22;6437;53.686;10.030;2023-05-01T04:14:41;7.80;99.90
12746;DHT22;6437;53.686;10.030;2023-05-01T04:16:44;8.10;99.90
12746;DHT22;6437;53.686;10.030;2023-05-01T04:18:47;8.20;99.90
12746;DHT22;6437;53.686;10.030;2023-05-01T04:20:49;8.20;99.90
12746;DHT22;6437;53.686;10.030;2023-05-01T04:22:51;8.20;99.90
12746;DHT22;6437;53.686;10.030;2023-05-01T04:24:52;8.20;99.90
12746;DHT22;6437;53.686;10.030;2023-05-01T04:26:54;8.20;99.90
12746;DHT22;6437;53.686;10.030;2023-05-01T04:28:56;8.20;99.90
12746;DHT22;6437;53.686;10.030;2023-05-01T04:30:58;8.30;99.90
12746;DHT22;6437;53.686;10.030;2023-05-01T04:33:00;8.20;99.90
12746;DHT22;6437;53.686;10.030;2023-05-01T04:35:03;8.30;99.90
12746;DHT22;6437;53.686;10.030;2023-05-01T04:37:05;8.20;99.90
12746;DHT22;6437;53.686;10.030;2023-05-01T04:39:08;8.30;99.90
12746;DHT22;6437;53.686;10.030;2023-05-01T04:41:10;8.30;99.90
12746;DHT22;6437;53.686;10.030;2023-05-01T04:43:11;8.30;99.90
12746;DHT22;6437;53.686;10.030;2023-05-01T04:45:14;8.30;99.90
12746;DHT22;6437;53.686;10.030;2023-05-01T04:47:15;8.30;99.90
12746;DHT22;6437;53.686;10.030;2023-05-01T04:49:17;8.40;99.90
12746;DHT22;6437;53.686;10.030;2023-05-01T04:51:20;8.10;99.90
12746;DHT22;6437;53.686;10.030;2023-05-01T04:53:22;8.30;99.90
12746;DHT22;6437;53.686;10.030;2023-05-01T04:55:24;8.30;99.90
12746;DHT22;6437;53.686;10.030;2023-05-01T04:57:26;8.40;99.90
12746;DHT22;6437;53.686;10.030;2023-05-01T04:59:28;8.40;99.90
12746;DHT22;6437;53.686;10.030;2023-05-01T05:01:29;8.50;99.90
12746;DHT22;6437;53.686;10.030;2023-05-01T05:03:31;8.50;99.90
12746;DHT22;6437;53.686;10.030;2023-05-01T05:05:33;8.60;99.90
12746;DHT22;6437;53.686;10.030;2023-05-01T05:07:37;8.50;99.90
12746;DHT22;6437;53.686;10.030;2023-05-01T05:09:41;8.50;99.90
12746;DHT22;6437;53.686;10.030;2023-05-01T05:11:43;8.60;99.90
12746;DHT22;6437;53.686;10.030;2023-05-01T05:13:44;8.60;99.90
12746;DHT22;6437;53.686;10.030;2023-05-01T05:15:46;8.60;99.90
12746;DHT22;6437;53.686;10.030;2023-05-01T05:17:48;8.90;99.90
12746;DHT22;6437;53.686;10.030;2023-05-01T05:19:50;8.60;99.90
12746;DHT22;6437;53.686;10.030;2023-05-01T05:21:52;8.60;99.90
12746;DHT22;6437;53.686;10.030;2023-05-01T05:23:55;8.60;99.90
12746;DHT22;6437;53.686;10.030;2023-05-01T05:25:56;9.30;99.90
12746;DHT22;6437;53.686;10.030;2023-05-01T05:28:00;8.70;99.90
12746;DHT22;6437;53.686;10.030;2023-05-01T05:30:03;8.70;99.90
12746;DHT22;6437;53.686;10.030;2023-05-01T05:32:05;8.70;99.90
12746;DHT22;6437;53.686;10.030;2023-05-01T05:34:06;8.80;99.90
12746;DHT22;6437;53.686;10.030;2023-05-01T05:36:08;8.80;99.90
12746;DHT22;6437;53.686;10.030;2023-05-01T05:38:10;8.80;99.90
12746;DHT22;6437;53.686;10.030;2023-05-01T05:40:14;8.80;99.90
12746;DHT22;6437;53.686;10.030;2023-05-01T05:42:16;8.80;99.90
12746;DHT22;6437;53.686;10.030;2023-05-01T05:44:18;8.90;99.90
12746;DHT22;6437;53.686;10.030;2023-05-01T05:46:20;8.90;99.90
12746;DHT22;6437;53.686;10.030;2023-05-01T05:48:22;9.00;99.90
12746;DHT22;6437;53.686;10.030;2023-05-01T05:50:23;9.00;99.90
12746;DHT22;6437;53.686;10.030;2023-05-01T05:52:25;9.10;99.90
12746;DHT22;6437;53.686;10.030;2023-05-01T05:54:27;9.10;99.90
12746;DHT22;6437;53.686;10.030;2023-05-01T05:56:30;9.10;99.90
12746;DHT22;6437;53.686;10.030;2023-05-01T05:58:32;9.20;99.90
12746;DHT22;6437;53.686;10.030;2023-05-01T06:00:34;9.20;99.90
12746;DHT22;6437;53.686;10.030;2023-05-01T06:02:38;9.30;99.90
12746;DHT22;6437;53.686;10.030;2023-05-01T06:04:40;9.30;99.90
12746;DHT22;6437;53.686;10.030;2023-05-01T06:06:42;9.30;99.90
12746;DHT22;6437;53.686;10.030;2023-05-01T06:08:44;9.30;99.90
12746;DHT22;6437;53.686;10.030;2023-05-01T06:10:46;9.30;99.90
12746;DHT22;6437;53.686;10.030;2023-05-01T06:12:49;9.40;99.90
12746;DHT22;6437;53.686;10.030;2023-05-01T06:14:51;9.40;99.90
12746;DHT22;6437;53.686;10.030;2023-05-01T06:16:53;9.50;99.90
12746;DHT22;6437;53.686;10.030;2023-05-01T06:18:55;9.50;99.90
12746;DHT22;6437;53.686;10.030;2023-05-01T06:20:56;9.60;99.90
12746;DHT22;6437;53.686;10.030;2023-05-01T06:22:59;9.60;99.90
12746;DHT22;6437;53.686;10.030;2023-05-01T06:25:01;9.70;99.90
12746;DHT22;6437;53.686;10.030;2023-05-01T06:27:03;9.70;99.90
12746;DHT22;6437;53.686;10.030;2023-05-01T06:29:06;9.90;99.90
12746;DHT22;6437;53.686;10.030;2023-05-01T06:31:08;9.90;99.90
12746;DHT22;6437;53.686;10.030;2023-05-01T06:33:10;9.50;99.90
12746;DHT22;6437;53.686;10.030;2023-05-01T06:35:12;10.00;99.90
12746;DHT22;6437;53.686;10.030;2023-05-01T06:37:14;10.00;99.90
12746;DHT22;6437;53.686;10.030;2023-05-01T06:39:16;10.10;99.90
12746;DHT22;6437;53.686;10.030;2023-05-01T06:41:17;10.10;99.90
12746;DHT22;6437;53.686;10.030;2023-05-01T06:43:21;10.30;99.90
12746;DHT22;6437;53.686;10.030;2023-05-01T06:45:24;10.30;99.90
12746;DHT22;6437;53.686;10.030;2023-05-01T06:47:26;10.30;99.90
12746;DHT22;6437;53.686;10.030;2023-05-01T06:49:28;10.40;99.90
12746;DHT22;6437;53.686;10.030;2023-05-01T06:51:29;10.50;99.90
12746;DHT22;6437;53.686;10.030;2023-05-01T06:53:31;10.50;99.90
12746;DHT22;6437;53.686;10.030;2023-05-01T06:55:33;10.60;99.90
12746;DHT22;6437;53.686;10.030;2023-05-01T06:57:38;10.70;99.90
12746;DHT22;6437;53.686;10.030;2023-05-01T06:59:42;10.60;99.90
12746;DHT22;6437;53.686;10.030;2023-05-01T07:01:45;10.70;99.90
12746;DHT22;6437;53.686;10.030;2023-05-01T07:03:47;10.80;99.90
12746;DHT22;6437;53.686;10.030;2023-05-01T07:05:49;10.80;99.90
12746;DHT22;6437;53.686;10.030;2023-05-01T07:07:51;10.90;99.90
12746;DHT22;6437;53.686;10.030;2023-05-01T07:09:53;11.00;99.90
12746;DHT22;6437;53.686;10.030;2023-05-01T07:11:55;11.00;99.90
12746;DHT22;6437;53.686;10.030;2023-05-01T07:13:57;11.10;99.90
12746;DHT22;6437;53.686;10.030;2023-05-01T07:15:58;11.20;99.90
12746;DHT22;6437;53.686;10.030;2023-05-01T07:18:03;11.20;99.90
12746;DHT22;6437;53.686;10.030;2023-05-01T07:20:06;11.30;99.90
12746;DHT22;6437;53.686;10.030;2023-05-01T07:22:09;11.30;99.90
12746;DHT22;6437;53.686;10.030;2023-05-01T07:24:11;11.40;99.90
12746;DHT22;6437;53.686;10.030;2023-05-01T07:26:13;11.40;99.90
12746;DHT22;6437;53.686;10.030;2023-05-01T07:28:15;11.50;99.90
12746;DHT22;6437;53.686;10.030;2023-05-01T07:30:19;11.50;99.90
12746;DHT22;6437;53.686;10.030;2023-05-01T07:32:21;11.60;99.90
12746;DHT22;6437;53.686;10.030;2023-05-01T07:34:24;11.70;99.90
12746;DHT22;6437;53.686;10.030;2023-05-01T07:36:26;11.70;99.90
12746;DHT22;6437;53.686;10.030;2023-05-01T07:38:28;11.80;99.90
12746;DHT22;6437;53.686;10.030;2023-05-01T07:40:32;11.90;99.90
12746;DHT22;6437;53.686;10.030;2023-05-01T07:42:34;11.90;99.90
12746;DHT22;6437;53.686;10.030;2023-05-01T07:44:37;12.00;99.90
12746;DHT22;6437;53.686;10.030;2023-05-01T07:46:39;12.00;99.90
12746;DHT22;6437;53.686;10.030;2023-05-01T07:48:41;12.10;99.90
12746;DHT22;6437;53.686;10.030;2023-05-01T07:50:45;12.20;99.90
12746;DHT22;6437;53.686;10.030;2023-05-01T07:52:47;12.40;99.90
12746;DHT22;6437;53.686;10.030;2023-05-01T07:54:49;12.30;99.90
12746;DHT22;6437;53.686;10.030;2023-05-01T07:56:51;12.30;99.90
12746;DHT22;6437;53.686;10.030;2023-05-01T07:58:52;12.40;99.60
12746;DHT22;6437;53.686;10.030;2023-05-01T08:00:54;12.40;99.50
12746;DHT22;6437;53.686;10.030;2023-05-01T08:02:56;12.50;99.10
12746;DHT22;6437;53.686;10.030;2023-05-01T08:04:58;12.50;98.70
12746;DHT22;6437;53.686;10.030;2023-05-01T08:07:01;12.60;98.90
12746;DHT22;6437;53.686;10.030;2023-05-01T08:09:03;12.70;98.80
12746;DHT22;6437;53.686;10.030;2023-05-01T08:11:05;12.70;98.60
12746;DHT22;6437;53.686;10.030;2023-05-01T08:13:07;12.80;98.40
12746;DHT22;6437;53.686;10.030;2023-05-01T08:15:09;12.80;98.40
12746;DHT22;6437;53.686;10.030;2023-05-01T08:17:10;12.90;97.70
12746;DHT22;6437;53.686;10.030;2023-05-01T08:19:12;12.90;96.90
12746;DHT22;6437;53.686;10.030;2023-05-01T08:21:14;12.90;96.70
12746;DHT22;6437;53.686;10.030;2023-05-01T08:23:17;12.90;96.50
12746;DHT22;6437;53.686;10.030;2023-05-01T08:25:19;13.00;96.10
12746;DHT22;6437;53.686;10.030;2023-05-01T08:27:21;13.00;95.90
12746;DHT22;6437;53.686;10.030;2023-05-01T08:29:22;13.00;95.60
12746;DHT22;6437;53.686;10.030;2023-05-01T08:31:24;13.10;95.30
12746;DHT22;6437;53.686;10.030;2023-05-01T08:33:26;13.10;95.30
12746;DHT22;6437;53.686;10.030;2023-05-01T08:35:28;13.10;95.60
12746;DHT22;6437;53.686;10.030;2023-05-01T08:37:29;13.20;96.00
12746;DHT22;6437;53.686;10.030;2023-05-01T08:39:32;13.20;96.50
12746;DHT22;6437;53.686;10.030;2023-05-01T08:41:35;13.20;96.50
12746;DHT22;6437;53.686;10.030;2023-05-01T08:43:38;13.30;96.30
12746;DHT22;6437;53.686;10.030;2023-05-01T08:45:41;13.30;96.20
12746;DHT22;6437;53.686;10.030;2023-05-01T08:47:44;13.40;96.40
12746;DHT22;6437;53.686;10.030;2023-05-01T08:49:47;13.40;95.80
12746;DHT22;6437;53.686;10.030;2023-05-01T08:51:50;13.50;95.70
12746;DHT22;6437;53.686;10.030;2023-05-01T08:53:57;13.60;95.80
12746;DHT22;6437;53.686;10.030;2023-05-01T08:56:05;13.60;96.30
12746;DHT22;6437;53.686;10.030;2023-05-01T08:58:08;13.60;96.10
12746;DHT22;6437;53.686;10.030;2023-05-01T09:00:15;13.60;96.30
12746;DHT22;6437;53.686;10.030;2023-05-01T09:02:18;13.60;96.10
12746;DHT22;6437;53.686;10.030;2023-05-01T09:04:22;13.70;96.40
12746;DHT22;6437;53.686;10.030;2023-05-01T09:06:24;13.70;96.40
12746;DHT22;6437;53.686;10.030;2023-05-01T09:08:27;13.80;96.30
12746;DHT22;6437;53.686;10.030;2023-05-01T09:10:29;13.80;96.70
12746;DHT22;6437;53.686;10.030;2023-05-01T09:12:35;13.80;96.30
12746;DHT22;6437;53.686;10.030;2023-05-01T09:14:37;13.80;96.30
12746;DHT22;6437;53.686;10.030;2023-05-01T09:16:40;13.90;96.20
12746;DHT22;6437;53.686;10.030;2023-05-01T09:18:41;14.00;96.20
12746;DHT22;6437;53.686;10.030;2023-05-01T09:20:43;13.90;96.00
12746;DHT22;6437;53.686;10.030;2023-05-01T09:22:45;13.90;96.70
12746;DHT22;6437;53.686;10.030;2023-05-01T09:24:47;13.90;96.20
12746;DHT22;6437;53.686;10.030;2023-05-01T09:26:49;14.00;96.40
12746;DHT22;6437;53.686;10.030;2023-05-01T09:28:53;14.10;96.40
12746;DHT22;6437;53.686;10.030;2023-05-01T09:30:57;14.10;97.30
12746;DHT22;6437;53.686;10.030;2023-05-01T09:33:06;14.20;96.30
12746;DHT22;6437;53.686;10.030;2023-05-01T09:35:10;14.20;96.50
12746;DHT22;6437;53.686;10.030;2023-05-01T09:37:13;14.30;96.60
12746;DHT22;6437;53.686;10.030;2023-05-01T09:39:24;14.30;95.20
12746;DHT22;6437;53.686;10.030;2023-05-01T09:41:27;14.30;95.10
12746;DHT22;6437;53.686;10.030;2023-05-01T09:43:30;14.40;96.00
12746;DHT22;6437;53.686;10.030;2023-05-01T09:45:34;14.40;96.20
12746;DHT22;6437;53.686;10.030;2023-05-01T09:47:35;14.50;95.30
12746;DHT22;6437;53.686;10.030;2023-05-01T09:49:43;14.50;95.40
12746;DHT22;6437;53.686;10.030;2023-05-01T09:51:46;14.60;95.50
12746;DHT22;6437;53.686;10.030;2023-05-01T09:53:48;14.60;95.20
12746;DHT22;6437;53.686;10.030;2023-05-01T09:55:58;14.60;95.60
12746;DHT22;6437;53.686;10.030;2023-05-01T09:58:01;14.70;95.30
12746;DHT22;6437;53.686;10.030;2023-05-01T10:00:04;14.70;95.40
12746;DHT22;6437;53.686;10.030;2023-05-01T10:02:26;14.70;95.20
12746;DHT22;6437;53.686;10.030;2023-05-01T10:04:30;14.80;95.10
12746;DHT22;6437;53.686;10.030;2023-05-01T10:06:32;14.80;95.60
12746;DHT22;6437;53.686;10.030;2023-05-01T10:08:44;14.80;95.60
12746;DHT22;6437;53.686;10.030;2023-05-01T10:10:58;14.80;94.80
12746;DHT22;6437;53.686;10.030;2023-05-01T10:13:12;14.90;94.70
12746;DHT22;6437;53.686;10.030;2023-05-01T10:15:15;14.90;93.70
12746;DHT22;6437;53.686;10.030;2023-05-01T10:17:19;15.00;93.30
12746;DHT22;6437;53.686;10.030;2023-05-01T10:19:21;15.00;93.80
12746;DHT22;6437;53.686;10.030;2023-05-01T10:21:23;15.10;93.90
12746;DHT22;6437;53.686;10.030;2023-05-01T10:23:24;15.20;93.90
12746;DHT22;6437;53.686;10.030;2023-05-01T10:25:26;15.20;92.70
12746;DHT22;6437;53.686;10.030;2023-05-01T10:27:29;15.20;92.40
12746;DHT22;6437;53.686;10.030;2023-05-01T10:29:31;15.20;93.40
12746;DHT22;6437;53.686;10.030;2023-05-01T10:31:36;15.30;93.70
12746;DHT22;6437;53.686;10.030;2023-05-01T10:33:39;15.30;94.30
12746;DHT22;6437;53.686;10.030;2023-05-01T10:35:44;15.40;93.10
12746;DHT22;6437;53.686;10.030;2023-05-01T10:37:55;15.50;92.60
12746;DHT22;6437;53.686;10.030;2023-05-01T10:39:59;15.50;93.40
12746;DHT22;6437;53.686;10.030;2023-05-01T10:42:02;15.60;93.30
12746;DHT22;6437;53.686;10.030;2023-05-01T10:44:19;15.70;92.90
12746;DHT22;6437;53.686;10.030;2023-05-01T10:46:27;15.80;92.80
12746;DHT22;6437;53.686;10.030;2023-05-01T10:48:53;15.90;92.50
12746;DHT22;6437;53.686;10.030;2023-05-01T10:51:08;16.00;90.50
12746;DHT22;6437;53.686;10.030;2023-05-01T10:53:15;16.00;90.60
12746;DHT22;6437;53.686;10.030;2023-05-01T10:55:33;16.10;91.10
12746;DHT22;6437;53.686;10.030;2023-05-01T10:57:42;16.20;89.40
12746;DHT22;6437;53.686;10.030;2023-05-01T11:00:09;16.20;89.10
12746;DHT22;6437;53.686;10.030;2023-05-01T11:02:20;16.30;87.50
12746;DHT22;6437;53.686;10.030;2023-05-01T11:04:46;16.40;86.90
12746;DHT22;6437;53.686;10.030;2023-05-01T11:07:14;16.40;85.60
12746;DHT22;6437;53.686;10.030;2023-05-01T11:09:35;16.50;86.50
12746;DHT22;6437;53.686;10.030;2023-05-01T11:11:47;16.50;86.40
12746;DHT22;6437;53.686;10.030;2023-05-01T11:13:56;16.50;86.50
12746;DHT22;6437;53.686;10.030;2023-05-01T11:15:58;16.50;88.20
12746;DHT22;6437;53.686;10.030;2023-05-01T11:18:45;16.60;88.10
12746;DHT22;6437;53.686;10.030;2023-05-01T11:20:49;16.60;88.40
12746;DHT22;6437;53.686;10.030;2023-05-01T11:22:52;16.60;88.70
12746;DHT22;6437;53.686;10.030;2023-05-01T11:24:54;16.80;90.20
12746;DHT22;6437;53.686;10.030;2023-05-01T11:26:57;16.80;88.80
12746;DHT22;6437;53.686;10.030;2023-05-01T11:29:00;16.90;89.00
12746;DHT22;6437;53.686;10.030;2023-05-01T11:31:05;16.90;89.20
12746;DHT22;6437;53.686;10.030;2023-05-01T11:33:08;17.00;86.90
12746;DHT22;6437;53.686;10.030;2023-05-01T11:35:16;16.90;88.00
12746;DHT22;6437;53.686;10.030;2023-05-01T11:37:29;17.10;88.50
12746;DHT22;6437;53.686;10.030;2023-05-01T11:39:47;17.10;87.90
12746;DHT22;6437;53.686;10.030;2023-05-01T11:41:49;17.20;87.60
12746;DHT22;6437;53.686;10.030;2023-05-01T11:43:52;17.20;87.70
12746;DHT22;6437;53.686;10.030;2023-05-01T11:45:54;17.30;88.30
12746;DHT22;6437;53.686;10.030;2023-05-01T11:48:02;17.40;87.80
12746;DHT22;6437;53.686;10.030;2023-05-01T11:50:04;17.40;86.90
12746;DHT22;6437;53.686;10.030;2023-05-01T11:52:08;17.50;86.90
12746;DHT22;6437;53.686;10.030;2023-05-01T11:54:11;17.50;87.70
12746;DHT22;6437;53.686;10.030;2023-05-01T11:56:19;17.50;85.50
12746;DHT22;6437;53.686;10.030;2023-05-01T11:58:33;17.60;85.60
12746;DHT22;6437;53.686;10.030;2023-05-01T12:00:37;17.60;85.30
12746;DHT22;6437;53.686;10.030;2023-05-01T12:02:40;17.60;85.70
12746;DHT22;6437;53.686;10.030;2023-05-01T12:04:42;17.60;85.70
12746;DHT22;6437;53.686;10.030;2023-05-01T12:06:45;17.70;84.30
12746;DHT22;6437;53.686;10.030;2023-05-01T12:08:47;17.70;86.30
12746;DHT22;6437;53.686;10.030;2023-05-01T12:10:53;17.80;86.90
12746;DHT22;6437;53.686;10.030;2023-05-01T12:12:56;17.80;85.90
12746;DHT22;6437;53.686;10.030;2023-05-01T12:14:58;17.90;85.30
12746;DHT22;6437;53.686;10.030;2023-05-01T12:17:00;18.00;85.60
12746;DHT22;6437;53.686;10.030;2023-05-01T12:19:03;18.00;86.60
12746;DHT22;6437;53.686;10.030;2023-05-01T12:21:14;18.00;84.90
12746;DHT22;6437;53.686;10.030;2023-05-01T12:23:17;18.10;85.00
12746;DHT22;6437;53.686;10.030;2023-05-01T12:25:19;18.20;84.90
12746;DHT22;6437;53.686;10.030;2023-05-01T12:27:23;18.20;84.00
12746;DHT22;6437;53.686;10.030;2023-05-01T12:29:25;18.30;85.70
12746;DHT22;6437;53.686;10.030;2023-05-01T12:31:27;18.30;85.50
12746;DHT22;6437;53.686;10.030;2023-05-01T12:33:29;18.40;84.60
12746;DHT22;6437;53.686;10.030;2023-05-01T12:35:31;18.50;85.30
12746;DHT22;6437;53.686;10.030;2023-05-01T12:37:33;18.50;84.60
12746;DHT22;6437;53.686;10.030;2023-05-01T12:39:37;18.60;83.00
12746;DHT22;6437;53.686;10.030;2023-05-01T12:41:40;18.60;83.00
12746;DHT22;6437;53.686;10.030;2023-05-01T12:43:45;18.60;83.00
12746;DHT22;6437;53.686;10.030;2023-05-01T12:45:51;18.60;82.40
12746;DHT22;6437;53.686;10.030;2023-05-01T12:47:53;18.70;82.10
12746;DHT22;6437;53.686;10.030;2023-05-01T12:50:01;18.70;81.20
12746;DHT22;6437;53.686;10.030;2023-05-01T12:52:04;18.70;82.00
12746;DHT22;6437;53.686;10.030;2023-05-01T12:54:08;18.70;81.80
12746;DHT22;6437;53.686;10.030;2023-05-01T12:56:20;18.70;81.20
12746;DHT22;6437;53.686;10.030;2023-05-01T12:58:24;18.80;82.00
12746;DHT22;6437;53.686;10.030;2023-05-01T13:00:43;18.70;81.70
12746;DHT22;6437;53.686;10.030;2023-05-01T13:02:45;18.80;83.70
12746;DHT22;6437;53.686;10.030;2023-05-01T13:04:48;18.80;83.20
12746;DHT22;6437;53.686;10.030;2023-05-01T13:06:51;18.80;83.10
12746;DHT22;6437;53.686;10.030;2023-05-01T13:08:55;18.80;81.60
12746;DHT22;6437;53.686;10.030;2023-05-01T13:10:58;18.70;81.80
12746;DHT22;6437;53.686;10.030;2023-05-01T13:13:00;18.80;81.50